sensor_id;sensor_type;location;lat;lon;timestamp;temperature;humidity
62575;DHT22;53112;45.602;11.904;2023-02-28T00:01:14;5.20;49.90
62575;DHT22;53112;45.602;11.904;2023-02-28T00:03:41;5.20;49.70
62575;DHT22;53112;45.602;11.904;2023-02-28T00:06:08;5.10;50.30
62575;DHT22;53112;45.602;11.904;2023-02-28T00:08:35;5.10;50.60
62575;DHT22;53112;45.602;11.904;2023-02-28T00:11:03;5.10;50.50
62575;DHT22;53112;45.602;11.904;2023-02-28T00:13:30;5.10;50.50
62575;DHT22;53112;45.602;11.904;2023-02-28T00:16:07;5.00;50.60
62575;DHT22;53112;45.602;11.904;2023-02-28T00:18:35;5.00;50.50
62575;DHT22;53112;45.602;11.904;2023-02-28T00:21:01;5.00;50.40
62575;DHT22;53112;45.602;11.904;2023-02-28T00:25:53;5.00;50.60
62575;DHT22;53112;45.602;11.904;2023-02-28T00:28:19;5.00;50.50
62575;DHT22;53112;45.602;11.904;2023-02-28T00:30:45;5.00;50.10
62575;DHT22;53112;45.602;11.904;2023-02-28T00:33:11;4.90;50.10
62575;DHT22;53112;45.602;11.904;2023-02-28T00:35:37;5.00;49.50
62575;DHT22;53112;45.602;11.904;2023-02-28T00:38:03;5.00;49.60
62575;DHT22;53112;45.602;11.904;2023-02-28T00:40:29;5.10;49.70
62575;DHT22;53112;45.602;11.904;2023-02-28T00:42:55;5.00;49.60
62575;DHT22;53112;45.602;11.904;2023-02-28T00:45:21;5.00;49.90
62575;DHT22;53112;45.602;11.904;2023-02-28T00:47:47;5.00;50.00
62575;DHT22;53112;45.602;11.904;2023-02-28T00:50:19;5.00;49.70
62575;DHT22;53112;45.602;11.904;2023-02-28T00:52:46;4.90;50.10
62575;DHT22;53112;45.602;11.904;2023-02-28T00:55:12;4.90;49.80
62575;DHT22;53112;45.602;11.904;2023-02-28T00:57:38;4.90;50.00
62575;DHT22;53112;45.602;11.904;2023-02-28T01:00:05;4.80;50.10
62575;DHT22;53112;45.602;11.904;2023-02-28T01:02:31;4.80;50.30
62575;DHT22;53112;45.602;11.904;2023-02-28T01:04:56;4.70;50.80
62575;DHT22;53112;45.602;11.904;2023-02-28T01:07:23;4.70;50.60
62575;DHT22;53112;45.602;11.904;2023-02-28T01:09:49;4.70;50.80
62575;DHT22;53112;45.602;11.904;2023-02-28T01:12:15;4.70;50.60
62575;DHT22;53112;45.602;11.904;2023-02-28T01:14:41;4.70;50.50
62575;DHT22;53112;45.602;11.904;2023-02-28T01:17:08;4.70;50.40
62575;DHT22;53112;45.602;11.904;2023-02-28T01:19:34;4.70;50.40
62575;DHT22;53112;45.602;11.904;2023-02-28T01:22:05;4.70;50.60
62575;DHT22;53112;45.602;11.904;2023-02-28T01:24:31;4.60;50.90
62575;DHT22;53112;45.602;11.904;2023-02-28T01:26:57;4.50;51.10
62575;DHT22;53112;45.602;11.904;2023-02-28T01:29:23;4.60;51.20
62575;DHT22;53112;45.602;11.904;2023-02-28T01:31:49;4.60;51.10
62575;DHT22;53112;45.602;11.904;2023-02-28T01:34:16;4.60;51.20
62575;DHT22;53112;45.602;11.904;2023-02-28T01:36:44;4.50;51.30
62575;DHT22;53112;45.602;11.904;2023-02-28T01:39:11;4.60;51.30
62575;DHT22;53112;45.602;11.904;2023-02-28T01:41:38;4.60;51.10
62575;DHT22;53112;45.602;11.904;2023-02-28T01:44:53;4.50;51.50
62575;DHT22;53112;45.602;11.904;2023-02-28T01:46:52;4.40;51.80
62575;DHT22;53112;45.602;11.904;2023-02-28T01:49:19;4.40;51.70
62575;DHT22;53112;45.602;11.904;2023-02-28T01:51:54;4.30;52.30
62575;DHT22;53112;45.602;11.904;2023-02-28T01:54:31;4.20;52.30
62575;DHT22;53112;45.602;11.904;2023-02-28T01:57:13;4.40;51.70
62575;DHT22;53112;45.602;11.904;2023-02-28T02:00:01;4.40;51.80
62575;DHT22;53112;45.602;11.904;2023-02-28T02:02:33;4.50;51.60
62575;DHT22;53112;45.602;11.904;2023-02-28T02:05:11;4.60;51.50
62575;DHT22;53112;45.602;11.904;2023-02-28T02:07:40;4.60;51.30
62575;DHT22;53112;45.602;11.904;2023-02-28T02:10:15;4.70;51.00
62575;DHT22;53112;45.602;11.904;2023-02-28T02:15:24;4.70;51.20
62575;DHT22;53112;45.602;11.904;2023-02-28T02:17:56;4.80;50.80
62575;DHT22;53112;45.602;11.904;2023-02-28T02:26:14;4.90;50.80
62575;DHT22;53112;45.602;11.904;2023-02-28T02:34:42;5.10;50.10
62575;DHT22;53112;45.602;11.904;2023-02-28T02:40:09;5.10;50.60
62575;DHT22;53112;45.602;11.904;2023-02-28T02:45:14;5.20;50.80
62575;DHT22;53112;45.602;11.904;2023-02-28T02:47:43;5.20;51.20
62575;DHT22;53112;45.602;11.904;2023-02-28T02:50:14;5.20;50.50
62575;DHT22;53112;45.602;11.904;2023-02-28T02:52:45;5.20;51.00
62575;DHT22;53112;45.602;11.904;2023-02-28T02:55:17;5.20;50.70
62575;DHT22;53112;45.602;11.904;2023-02-28T02:57:54;5.40;50.40
62575;DHT22;53112;45.602;11.904;2023-02-28T03:00:26;5.50;49.90
62575;DHT22;53112;45.602;11.904;2023-02-28T03:02:56;5.40;49.90
62575;DHT22;53112;45.602;11.904;2023-02-28T03:05:46;5.60;49.90
62575;DHT22;53112;45.602;11.904;2023-02-28T03:08:13;5.60;50.00
62575;DHT22;53112;45.602;11.904;2023-02-28T03:10:42;5.60;49.70
62575;DHT22;53112;45.602;11.904;2023-02-28T03:24:20;5.90;49.30
62575;DHT22;53112;45.602;11.904;2023-02-28T03:26:58;5.90;49.30
62575;DHT22;53112;45.602;11.904;2023-02-28T03:32:07;5.90;49.10
62575;DHT22;53112;45.602;11.904;2023-02-28T03:34:41;5.90;49.30
62575;DHT22;53112;45.602;11.904;2023-02-28T03:37:14;5.90;49.30
62575;DHT22;53112;45.602;11.904;2023-02-28T03:39:47;5.90;49.40
62575;DHT22;53112;45.602;11.904;2023-02-28T03:42:19;5.90;49.50
62575;DHT22;53112;45.602;11.904;2023-02-28T03:44:59;5.80;49.50
62575;DHT22;53112;45.602;11.904;2023-02-28T03:50:09;5.90;49.70
62575;DHT22;53112;45.602;11.904;2023-02-28T03:52:44;5.90;49.40
62575;DHT22;53112;45.602;11.904;2023-02-28T03:55:12;5.90;49.60
62575;DHT22;53112;45.602;11.904;2023-02-28T04:00:31;5.80;50.00
62575;DHT22;53112;45.602;11.904;2023-02-28T04:03:00;5.80;50.10
62575;DHT22;53112;45.602;11.904;2023-02-28T04:05:27;5.80;49.80
62575;DHT22;53112;45.602;11.904;2023-02-28T04:07:53;5.80;49.70
62575;DHT22;53112;45.602;11.904;2023-02-28T04:10:20;5.90;49.60
62575;DHT22;53112;45.602;11.904;2023-02-28T04:12:46;5.80;49.70
62575;DHT22;53112;45.602;11.904;2023-02-28T04:15:12;5.80;50.40
62575;DHT22;53112;45.602;11.904;2023-02-28T04:17:38;5.70;50.20
62575;DHT22;53112;45.602;11.904;2023-02-28T04:20:04;5.70;50.20
62575;DHT22;53112;45.602;11.904;2023-02-28T04:22:35;5.80;50.40
62575;DHT22;53112;45.602;11.904;2023-02-28T04:25:01;5.70;50.50
62575;DHT22;53112;45.602;11.904;2023-02-28T04:27:27;5.80;50.60
62575;DHT22;53112;45.602;11.904;2023-02-28T04:29:53;5.80;50.40
62575;DHT22;53112;45.602;11.904;2023-02-28T04:32:19;5.70;50.60
62575;DHT22;53112;45.602;11.904;2023-02-28T04:34:45;5.80;50.50
62575;DHT22;53112;45.602;11.904;2023-02-28T04:37:11;5.80;50.40
62575;DHT22;53112;45.602;11.904;2023-02-28T04:39:37;5.80;50.30
62575;DHT22;53112;45.602;11.904;2023-02-28T04:42:04;5.80;50.70
62575;DHT22;53112;45.602;11.904;2023-02-28T04:44:30;5.80;50.20
62575;DHT22;53112;45.602;11.904;2023-02-28T04:46:57;5.90;49.90
62575;DHT22;53112;45.602;11.904;2023-02-28T04:49:23;6.00;49.60
62575;DHT22;53112;45.602;11.904;2023-02-28T04:51:48;5.90;49.80
62575;DHT22;53112;45.602;11.904;2023-02-28T04:54:15;6.00;49.60
62575;DHT22;53112;45.602;11.904;2023-02-28T04:56:43;6.10;49.50
62575;DHT22;53112;45.602;11.904;2023-02-28T04:59:09;6.10;49.50
62575;DHT22;53112;45.602;11.904;2023-02-28T05:01:35;6.00;49.70
62575;DHT22;53112;45.602;11.904;2023-02-28T05:04:03;5.90;49.80
62575;DHT22;53112;45.602;11.904;2023-02-28T05:06:31;5.90;49.90
62575;DHT22;53112;45.602;11.904;2023-02-28T05:08:58;5.90;49.70
62575;DHT22;53112;45.602;11.904;2023-02-28T05:11:29;6.00;49.60
62575;DHT22;53112;45.602;11.904;2023-02-28T05:14:08;6.00;49.70
62575;DHT22;53112;45.602;11.904;2023-02-28T05:16:35;5.90;49.70
62575;DHT22;53112;45.602;11.904;2023-02-28T05:19:01;6.00;49.50
62575;DHT22;53112;45.602;11.904;2023-02-28T05:21:32;5.90;50.00
62575;DHT22;53112;45.602;11.904;2023-02-28T05:24:00;5.90;50.00
62575;DHT22;53112;45.602;11.904;2023-02-28T05:26:27;5.90;49.60
62575;DHT22;53112;45.602;11.904;2023-02-28T05:28:53;5.90;49.60
62575;DHT22;53112;45.602;11.904;2023-02-28T05:31:19;5.90;49.60
62575;DHT22;53112;45.602;11.904;2023-02-28T05:33:45;5.90;49.50
62575;DHT22;53112;45.602;11.904;2023-02-28T05:36:11;5.90;49.60
62575;DHT22;53112;45.602;11.904;2023-02-28T05:38:37;5.90;49.80
62575;DHT22;53112;45.602;11.904;2023-02-28T05:41:07;5.80;49.80
62575;DHT22;53112;45.602;11.904;2023-02-28T05:43:34;5.80;50.20
62575;DHT22;53112;45.602;11.904;2023-02-28T05:46:03;5.80;50.00
62575;DHT22;53112;45.602;11.904;2023-02-28T05:48:29;5.70;50.20
62575;DHT22;53112;45.602;11.904;2023-02-28T05:50:54;5.70;50.30
62575;DHT22;53112;45.602;11.904;2023-02-28T05:53:20;5.80;50.10
62575;DHT22;53112;45.602;11.904;2023-02-28T05:55:46;5.70;50.00
62575;DHT22;53112;45.602;11.904;2023-02-28T05:58:12;5.70;50.10
62575;DHT22;53112;45.602;11.904;2023-02-28T06:00:38;5.80;50.20
62575;DHT22;53112;45.602;11.904;2023-02-28T06:03:03;5.80;50.40
62575;DHT22;53112;45.602;11.904;2023-02-28T06:05:29;5.80;50.00
62575;DHT22;53112;45.602;11.904;2023-02-28T06:07:55;5.90;49.80
62575;DHT22;53112;45.602;11.904;2023-02-28T06:10:21;5.90;49.90
62575;DHT22;53112;45.602;11.904;2023-02-28T06:12:46;6.00;49.70
62575;DHT22;53112;45.602;11.904;2023-02-28T06:15:13;6.10;49.50
62575;DHT22;53112;45.602;11.904;2023-02-28T06:17:41;6.20;49.40
62575;DHT22;53112;45.602;11.904;2023-02-28T06:20:08;6.30;48.90
62575;DHT22;53112;45.602;11.904;2023-02-28T06:22:35;6.40;49.30
62575;DHT22;53112;45.602;11.904;2023-02-28T06:25:02;6.60;48.90
62575;DHT22;53112;45.602;11.904;2023-02-28T06:27:28;6.70;48.50
62575;DHT22;53112;45.602;11.904;2023-02-28T06:29:55;6.90;48.20
62575;DHT22;53112;45.602;11.904;2023-02-28T06:32:21;7.20;48.00
62575;DHT22;53112;45.602;11.904;2023-02-28T06:34:47;7.50;47.50
62575;DHT22;53112;45.602;11.904;2023-02-28T06:37:13;7.70;47.20
62575;DHT22;53112;45.602;11.904;2023-02-28T06:39:39;8.00;46.70
62575;DHT22;53112;45.602;11.904;2023-02-28T06:42:05;8.20;46.50
62575;DHT22;53112;45.602;11.904;2023-02-28T06:44:31;8.50;45.90
62575;DHT22;53112;45.602;11.904;2023-02-28T06:47:02;8.70;45.40
62575;DHT22;53112;45.602;11.904;2023-02-28T06:49:30;8.90;45.10
62575;DHT22;53112;45.602;11.904;2023-02-28T06:51:56;9.10;44.50
62575;DHT22;53112;45.602;11.904;2023-02-28T06:54:22;9.40;44.60
62575;DHT22;53112;45.602;11.904;2023-02-28T06:56:48;9.30;44.40
62575;DHT22;53112;45.602;11.904;2023-02-28T06:59:14;9.20;43.80
62575;DHT22;53112;45.602;11.904;2023-02-28T07:01:40;9.10;44.50
62575;DHT22;53112;45.602;11.904;2023-02-28T07:04:07;9.30;44.00
62575;DHT22;53112;45.602;11.904;2023-02-28T07:06:33;9.40;43.60
62575;DHT22;53112;45.602;11.904;2023-02-28T07:08:59;9.60;43.70
62575;DHT22;53112;45.602;11.904;2023-02-28T07:11:26;9.60;43.80
62575;DHT22;53112;45.602;11.904;2023-02-28T07:13:56;9.70;42.60
62575;DHT22;53112;45.602;11.904;2023-02-28T07:16:23;9.70;42.90
62575;DHT22;53112;45.602;11.904;2023-02-28T07:18:52;9.90;42.50
62575;DHT22;53112;45.602;11.904;2023-02-28T07:23:47;10.10;41.90
62575;DHT22;53112;45.602;11.904;2023-02-28T07:28:44;10.30;41.10
62575;DHT22;53112;45.602;11.904;2023-02-28T07:31:10;10.50;41.10
62575;DHT22;53112;45.602;11.904;2023-02-28T07:33:37;10.30;40.90
62575;DHT22;53112;45.602;11.904;2023-02-28T07:36:04;10.40;41.30
62575;DHT22;53112;45.602;11.904;2023-02-28T07:38:37;10.60;40.30
62575;DHT22;53112;45.602;11.904;2023-02-28T07:41:03;10.70;40.40
62575;DHT22;53112;45.602;11.904;2023-02-28T07:43:32;10.70;40.20
62575;DHT22;53112;45.602;11.904;2023-02-28T07:46:07;10.90;40.60
62575;DHT22;53112;45.602;11.904;2023-02-28T07:48:33;10.70;39.80
62575;DHT22;53112;45.602;11.904;2023-02-28T07:50:59;10.70;40.10
62575;DHT22;53112;45.602;11.904;2023-02-28T07:53:26;10.70;40.10
62575;DHT22;53112;45.602;11.904;2023-02-28T07:55:56;11.00;39.80
62575;DHT22;53112;45.602;11.904;2023-02-28T07:58:23;11.10;39.10
62575;DHT22;53112;45.602;11.904;2023-02-28T08:00:50;11.40;39.90
62575;DHT22;53112;45.602;11.904;2023-02-28T08:03:17;11.30;38.70
62575;DHT22;53112;45.602;11.904;2023-02-28T08:05:43;11.40;38.80
62575;DHT22;53112;45.602;11.904;2023-02-28T08:08:09;11.30;39.40
62575;DHT22;53112;45.602;11.904;2023-02-28T08:10:36;11.70;39.60
62575;DHT22;53112;45.602;11.904;2023-02-28T08:13:02;11.90;38.10
62575;DHT22;53112;45.602;11.904;2023-02-28T08:15:29;12.50;37.10
62575;DHT22;53112;45.602;11.904;2023-02-28T08:17:55;12.20;36.20
62575;DHT22;53112;45.602;11.904;2023-02-28T08:20:24;12.40;37.30
62575;DHT22;53112;45.602;11.904;2023-02-28T08:22:50;12.40;37.20
62575;DHT22;53112;45.602;11.904;2023-02-28T08:25:16;12.30;36.80
62575;DHT22;53112;45.602;11.904;2023-02-28T08:27:43;12.40;36.20
62575;DHT22;53112;45.602;11.904;2023-02-28T08:30:12;12.50;35.80
62575;DHT22;53112;45.602;11.904;2023-02-28T08:32:38;12.60;36.00
62575;DHT22;53112;45.602;11.904;2023-02-28T08:35:05;12.70;36.10
62575;DHT22;53112;45.602;11.904;2023-02-28T08:37:30;13.10;36.20
62575;DHT22;53112;45.602;11.904;2023-02-28T08:39:56;13.30;35.90
62575;DHT22;53112;45.602;11.904;2023-02-28T08:42:23;13.60;34.40
62575;DHT22;53112;45.602;11.904;2023-02-28T08:44:49;13.40;34.80
62575;DHT22;53112;45.602;11.904;2023-02-28T08:47:15;13.70;35.00
62575;DHT22;53112;45.602;11.904;2023-02-28T08:49:40;14.10;34.80
62575;DHT22;53112;45.602;11.904;2023-02-28T08:52:06;14.10;33.00
62575;DHT22;53112;45.602;11.904;2023-02-28T08:54:32;14.00;33.40
62575;DHT22;53112;45.602;11.904;2023-02-28T08:57:00;14.40;32.30
62575;DHT22;53112;45.602;11.904;2023-02-28T08:59:26;14.60;33.10
62575;DHT22;53112;45.602;11.904;2023-02-28T09:01:52;14.70;33.30
62575;DHT22;53112;45.602;11.904;2023-02-28T09:04:18;14.70;32.70
62575;DHT22;53112;45.602;11.904;2023-02-28T09:06:44;14.90;32.50
62575;DHT22;53112;45.602;11.904;2023-02-28T09:09:10;14.90;32.50
62575;DHT22;53112;45.602;11.904;2023-02-28T09:11:36;15.20;32.20
62575;DHT22;53112;45.602;11.904;2023-02-28T09:14:03;15.30;31.90
62575;DHT22;53112;45.602;11.904;2023-02-28T09:16:30;14.70;32.90
62575;DHT22;53112;45.602;11.904;2023-02-28T09:18:57;14.10;32.70
62575;DHT22;53112;45.602;11.904;2023-02-28T09:21:23;14.10;34.00
62575;DHT22;53112;45.602;11.904;2023-02-28T09:23:50;15.20;33.00
62575;DHT22;53112;45.602;11.904;2023-02-28T09:26:20;14.70;32.10
62575;DHT22;53112;45.602;11.904;2023-02-28T09:28:46;15.10;30.90
62575;DHT22;53112;45.602;11.904;2023-02-28T09:31:14;15.30;33.20
62575;DHT22;53112;45.602;11.904;2023-02-28T09:33:41;14.50;32.50
62575;DHT22;53112;45.602;11.904;2023-02-28T09:36:07;14.20;33.90
62575;DHT22;53112;45.602;11.904;2023-02-28T09:38:33;13.80;34.70
62575;DHT22;53112;45.602;11.904;2023-02-28T09:41:01;13.90;33.40
62575;DHT22;53112;45.602;11.904;2023-02-28T09:43:33;14.20;33.70
62575;DHT22;53112;45.602;11.904;2023-02-28T09:48:57;14.60;32.00
62575;DHT22;53112;45.602;11.904;2023-02-28T09:54:22;15.20;30.80
62575;DHT22;53112;45.602;11.904;2023-02-28T10:08:21;16.30;30.70
62575;DHT22;53112;45.602;11.904;2023-02-28T10:10:54;16.20;29.70
62575;DHT22;53112;45.602;11.904;2023-02-28T10:13:32;16.60;29.50
62575;DHT22;53112;45.602;11.904;2023-02-28T10:16:06;16.10;28.90
62575;DHT22;53112;45.602;11.904;2023-02-28T10:18:43;16.20;30.00
62575;DHT22;53112;45.602;11.904;2023-02-28T10:23:59;15.60;31.20
62575;DHT22;53112;45.602;11.904;2023-02-28T10:26:29;16.10;30.30
62575;DHT22;53112;45.602;11.904;2023-02-28T10:28:55;16.60;29.80
62575;DHT22;53112;45.602;11.904;2023-02-28T10:31:21;16.70;30.50
62575;DHT22;53112;45.602;11.904;2023-02-28T10:33:48;16.70;29.90
62575;DHT22;53112;45.602;11.904;2023-02-28T10:36:16;15.90;31.30
62575;DHT22;53112;45.602;11.904;2023-02-28T10:38:44;16.10;31.20
62575;DHT22;53112;45.602;11.904;2023-02-28T10:41:15;16.60;30.40
62575;DHT22;53112;45.602;11.904;2023-02-28T10:43:43;16.70;29.40
62575;DHT22;53112;45.602;11.904;2023-02-28T10:51:14;17.20;28.90
62575;DHT22;53112;45.602;11.904;2023-02-28T10:58:57;18.40;29.10
62575;DHT22;53112;45.602;11.904;2023-02-28T11:01:44;17.40;27.80
62575;DHT22;53112;45.602;11.904;2023-02-28T11:07:18;18.10;27.90
62575;DHT22;53112;45.602;11.904;2023-02-28T11:09:55;17.80;28.30
62575;DHT22;53112;45.602;11.904;2023-02-28T11:12:36;17.90;28.20
62575;DHT22;53112;45.602;11.904;2023-02-28T11:15:06;18.50;27.70
62575;DHT22;53112;45.602;11.904;2023-02-28T11:17:44;19.10;27.20
62575;DHT22;53112;45.602;11.904;2023-02-28T11:20:22;18.80;27.20
62575;DHT22;53112;45.602;11.904;2023-02-28T11:22:49;18.20;28.30
62575;DHT22;53112;45.602;11.904;2023-02-28T11:27:49;18.50;27.90
62575;DHT22;53112;45.602;11.904;2023-02-28T11:30:31;18.90;26.80
62575;DHT22;53112;45.602;11.904;2023-02-28T11:32:58;18.40;27.50
62575;DHT22;53112;45.602;11.904;2023-02-28T11:35:33;17.90;28.30
62575;DHT22;53112;45.602;11.904;2023-02-28T11:38:02;17.90;28.60
62575;DHT22;53112;45.602;11.904;2023-02-28T11:48:44;19.00;27.60
62575;DHT22;53112;45.602;11.904;2023-02-28T11:51:24;18.80;28.00
62575;DHT22;53112;45.602;11.904;2023-02-28T11:54:17;18.80;26.30
62575;DHT22;53112;45.602;11.904;2023-02-28T11:56:47;19.00;26.10
62575;DHT22;53112;45.602;11.904;2023-02-28T12:10:30;17.70;28.70
62575;DHT22;53112;45.602;11.904;2023-02-28T12:18:47;18.60;27.40
62575;DHT22;53112;45.602;11.904;2023-02-28T12:21:45;18.20;26.00
62575;DHT22;53112;45.602;11.904;2023-02-28T12:27:13;17.90;27.60
62575;DHT22;53112;45.602;11.904;2023-02-28T12:30:02;17.70;27.70
62575;DHT22;53112;45.602;11.904;2023-02-28T12:32:33;17.70;28.90
62575;DHT22;53112;45.602;11.904;2023-02-28T12:40:11;19.50;25.40
62575;DHT22;53112;45.602;11.904;2023-02-28T12:42:51;20.10;25.50
62575;DHT22;53112;45.602;11.904;2023-02-28T12:45:25;18.90;25.20
62575;DHT22;53112;45.602;11.904;2023-02-28T12:47:58;19.20;26.70
62575;DHT22;53112;45.602;11.904;2023-02-28T12:50:27;19.50;26.50
62575;DHT22;53112;45.602;11.904;2023-02-28T12:58:43;19.00;26.00
62575;DHT22;53112;45.602;11.904;2023-02-28T13:01:14;19.50;26.20
62575;DHT22;53112;45.602;11.904;2023-02-28T13:09:15;18.90;27.00
62575;DHT22;53112;45.602;11.904;2023-02-28T13:11:43;19.10;26.80
62575;DHT22;53112;45.602;11.904;2023-02-28T13:14:29;19.40;26.40
62575;DHT22;53112;45.602;11.904;2023-02-28T13:22:17;20.10;26.20
62575;DHT22;53112;45.602;11.904;2023-02-28T13:24:47;21.10;24.60
62575;DHT22;53112;45.602;11.904;2023-02-28T13:29:44;20.40;24.80
62575;DHT22;53112;45.602;11.904;2023-02-28T13:34:36;19.50;25.90
62575;DHT22;53112;45.602;11.904;2023-02-28T13:47:21;20.70;24.60
62575;DHT22;53112;45.602;11.904;2023-02-28T13:49:48;20.40;25.00
62575;DHT22;53112;45.602;11.904;2023-02-28T13:52:18;20.60;24.60
62575;DHT22;53112;45.602;11.904;2023-02-28T14:00:35;21.60;23.90
62575;DHT22;53112;45.602;11.904;2023-02-28T14:05:30;21.10;24.30
62575;DHT22;53112;45.602;11.904;2023-02-28T14:08:03;22.00;23.70
62575;DHT22;53112;45.602;11.904;2023-02-28T14:10:36;21.70;23.70
62575;DHT22;53112;45.602;11.904;2023-02-28T14:13:42;21.90;23.40
62575;DHT22;53112;45.602;11.904;2023-02-28T14:16:20;22.00;23.60
62575;DHT22;53112;45.602;11.904;2023-02-28T14:19:00;21.30;23.80
62575;DHT22;53112;45.602;11.904;2023-02-28T14:21:28;21.60;23.50
62575;DHT22;53112;45.602;11.904;2023-02-28T14:33:13;22.50;22.30
62575;DHT22;53112;45.602;11.904;2023-02-28T14:38:31;21.20;22.80
62575;DHT22;53112;45.602;11.904;2023-02-28T14:41:01;21.20;23.80
62575;DHT22;53112;45.602;11.904;2023-02-28T14:43:28;21.90;22.80
62575;DHT22;53112;45.602;11.904;2023-02-28T14:45:59;20.90;23.90
62575;DHT22;53112;45.602;11.904;2023-02-28T14:48:26;20.90;24.00
62575;DHT22;53112;45.602;11.904;2023-02-28T14:50:58;20.80;23.50
62575;DHT22;53112;45.602;11.904;2023-02-28T14:53:34;20.40;25.20
62575;DHT22;53112;45.602;11.904;2023-02-28T14:56:01;19.60;26.20
62575;DHT22;53112;45.602;11.904;2023-02-28T14:58:31;19.50;25.40
62575;DHT22;53112;45.602;11.904;2023-02-28T15:00:59;19.30;27.00
62575;DHT22;53112;45.602;11.904;2023-02-28T15:03:34;18.90;26.60
62575;DHT22;53112;45.602;11.904;2023-02-28T15:06:06;19.10;26.10
62575;DHT22;53112;45.602;11.904;2023-02-28T15:08:37;19.00;25.40
62575;DHT22;53112;45.602;11.904;2023-02-28T15:11:19;18.90;26.30
62575;DHT22;53112;45.602;11.904;2023-02-28T15:13:52;19.00;26.00
62575;DHT22;53112;45.602;11.904;2023-02-28T15:16:22;20.30;25.50
62575;DHT22;53112;45.602;11.904;2023-02-28T15:19:00;18.80;26.20
62575;DHT22;53112;45.602;11.904;2023-02-28T15:21:39;17.80;28.10
62575;DHT22;53112;45.602;11.904;2023-02-28T15:26:59;15.90;30.50
62575;DHT22;53112;45.602;11.904;2023-02-28T15:29:27;15.70;30.50
62575;DHT22;53112;45.602;11.904;2023-02-28T15:32:04;16.00;31.40
62575;DHT22;53112;45.602;11.904;2023-02-28T15:34:42;15.90;30.30
62575;DHT22;53112;45.602;11.904;2023-02-28T15:39:53;15.60;30.30
62575;DHT22;53112;45.602;11.904;2023-02-28T15:42:22;15.80;31.40
62575;DHT22;53112;45.602;11.904;2023-02-28T15:44:48;16.00;31.30
62575;DHT22;53112;45.602;11.904;2023-02-28T15:47:22;15.70;32.60
62575;DHT22;53112;45.602;11.904;2023-02-28T15:49:54;15.80;33.80
62575;DHT22;53112;45.602;11.904;2023-02-28T15:55:08;15.90;34.50
62575;DHT22;53112;45.602;11.904;2023-02-28T15:57:39;16.00;34.20
62575;DHT22;53112;45.602;11.904;2023-02-28T16:00:11;15.80;34.50
62575;DHT22;53112;45.602;11.904;2023-02-28T16:02:38;15.30;35.90
62575;DHT22;53112;45.602;11.904;2023-02-28T16:07:38;15.10;36.10
62575;DHT22;53112;45.602;11.904;2023-02-28T16:10:06;15.10;36.20
62575;DHT22;53112;45.602;11.904;2023-02-28T16:12:35;14.90;36.50
62575;DHT22;53112;45.602;11.904;2023-02-28T16:15:17;14.70;36.40
62575;DHT22;53112;45.602;11.904;2023-02-28T16:17:44;14.60;37.10
62575;DHT22;53112;45.602;11.904;2023-02-28T16:20:19;14.50;37.10
62575;DHT22;53112;45.602;11.904;2023-02-28T16:22:45;14.50;36.90
62575;DHT22;53112;45.602;11.904;2023-02-28T16:25:13;14.30;37.30
62575;DHT22;53112;45.602;11.904;2023-02-28T16:27:39;14.20;37.40
62575;DHT22;53112;45.602;11.904;2023-02-28T16:30:07;14.10;37.60
62575;DHT22;53112;45.602;11.904;2023-02-28T16:32:36;14.40;37.20
62575;DHT22;53112;45.602;11.904;2023-02-28T16:35:03;15.00;36.30
62575;DHT22;53112;45.602;11.904;2023-02-28T16:37:31;15.50;35.50
62575;DHT22;53112;45.602;11.904;2023-02-28T16:39:57;15.50;35.40
62575;DHT22;53112;45.602;11.904;2023-02-28T16:42:26;14.90;36.00
62575;DHT22;53112;45.602;11.904;2023-02-28T16:44:53;14.10;37.40
62575;DHT22;53112;45.602;11.904;2023-02-28T16:47:19;13.80;38.10
62575;DHT22;53112;45.602;11.904;2023-02-28T16:49:45;13.60;38.70
62575;DHT22;53112;45.602;11.904;2023-02-28T16:52:13;13.30;38.90
62575;DHT22;53112;45.602;11.904;2023-02-28T16:54:40;13.10;39.30
62575;DHT22;53112;45.602;11.904;2023-02-28T16:57:20;12.90;39.40
62575;DHT22;53112;45.602;11.904;2023-02-28T16:59:47;12.90;39.40
62575;DHT22;53112;45.602;11.904;2023-02-28T17:02:15;12.80;39.50
62575;DHT22;53112;45.602;11.904;2023-02-28T17:04:42;12.70;39.70
62575;DHT22;53112;45.602;11.904;2023-02-28T17:07:13;12.50;40.00
62575;DHT22;53112;45.602;11.904;2023-02-28T17:09:40;12.20;40.40
62575;DHT22;53112;45.602;11.904;2023-02-28T17:12:06;12.20;40.50
62575;DHT22;53112;45.602;11.904;2023-02-28T17:14:32;12.10;40.60
62575;DHT22;53112;45.602;11.904;2023-02-28T17:16:58;12.00;40.70
62575;DHT22;53112;45.602;11.904;2023-02-28T17:19:24;11.90;40.80
62575;DHT22;53112;45.602;11.904;2023-02-28T17:21:50;11.90;40.90
62575;DHT22;53112;45.602;11.904;2023-02-28T17:24:16;11.60;42.00
62575;DHT22;53112;45.602;11.904;2023-02-28T17:26:42;11.50;41.50
62575;DHT22;53112;45.602;11.904;2023-02-28T17:29:20;11.40;41.70
62575;DHT22;53112;45.602;11.904;2023-02-28T17:31:46;11.20;42.50
62575;DHT22;53112;45.602;11.904;2023-02-28T17:34:13;11.10;42.10
62575;DHT22;53112;45.602;11.904;2023-02-28T17:36:45;11.10;43.10
62575;DHT22;53112;45.602;11.904;2023-02-28T17:39:13;10.70;44.00
62575;DHT22;53112;45.602;11.904;2023-02-28T17:41:42;10.50;44.60
62575;DHT22;53112;45.602;11.904;2023-02-28T17:44:09;10.20;45.00
62575;DHT22;53112;45.602;11.904;2023-02-28T17:46:35;9.90;46.00
62575;DHT22;53112;45.602;11.904;2023-02-28T17:49:01;9.80;46.30
62575;DHT22;53112;45.602;11.904;2023-02-28T17:51:27;9.80;45.60
62575;DHT22;53112;45.602;11.904;2023-02-28T17:53:53;9.70;45.60
62575;DHT22;53112;45.602;11.904;2023-02-28T17:56:21;9.60;45.70
62575;DHT22;53112;45.602;11.904;2023-02-28T18:01:18;9.30;46.30
62575;DHT22;53112;45.602;11.904;2023-02-28T18:06:22;9.10;47.30
62575;DHT22;53112;45.602;11.904;2023-02-28T18:08:50;9.10;46.80
62575;DHT22;53112;45.602;11.904;2023-02-28T18:11:20;9.10;46.90
62575;DHT22;53112;45.602;11.904;2023-02-28T18:13:49;9.10;46.90
62575;DHT22;53112;45.602;11.904;2023-02-28T18:16:15;9.10;46.40
62575;DHT22;53112;45.602;11.904;2023-02-28T18:18:42;8.90;47.30
62575;DHT22;53112;45.602;11.904;2023-02-28T18:21:10;8.70;48.40
62575;DHT22;53112;45.602;11.904;2023-02-28T18:23:36;8.60;47.50
62575;DHT22;53112;45.602;11.904;2023-02-28T18:26:06;8.60;47.80
62575;DHT22;53112;45.602;11.904;2023-02-28T18:28:33;8.60;48.70
62575;DHT22;53112;45.602;11.904;2023-02-28T18:31:09;8.60;48.10
62575;DHT22;53112;45.602;11.904;2023-02-28T18:33:35;8.60;47.80
62575;DHT22;53112;45.602;11.904;2023-02-28T18:36:01;8.60;48.00
62575;DHT22;53112;45.602;11.904;2023-02-28T18:38:27;8.60;47.90